sensor_id;sensor_type;location;lat;lon;timestamp;pressure;altitude;pressure_sealevel;temperature;humidity
26083;BME280;13848;49.018;12.078;2022-09-12T00:01:06;97879.44;;;15.02;78.71
26083;BME280;13848;49.018;12.078;2022-09-12T00:03:32;97882.22;;;15.07;78.59
26083;BME280;13848;49.018;12.078;2022-09-12T00:05:58;97877.22;;;14.99;78.66
26083;BME280;13848;49.018;12.078;2022-09-12T00:08:26;97872.84;;;14.98;78.83
26083;BME280;13848;49.018;12.078;2022-09-12T00:10:52;97865.94;;;14.90;79.03
26083;BME280;13848;49.018;12.078;2022-09-12T00:13:18;97868.88;;;14.89;78.70
26083;BME280;13848;49.018;12.078;2022-09-12T00:15:44;97864.78;;;14.86;78.68
26083;BME280;13848;49.018;12.078;2022-09-12T00:18:13;97860.63;;;14.84;78.56
26083;BME280;13848;49.018;12.078;2022-09-12T00:20:40;97867.75;;;14.85;78.91
26083;BME280;13848;49.018;12.078;2022-09-12T00:23:06;97856.13;;;14.73;79.39
26083;BME280;13848;49.018;12.078;2022-09-12T00:25:34;97852.91;;;14.76;79.00
26083;BME280;13848;49.018;12.078;2022-09-12T00:28:00;97859.16;;;14.76;78.99
26083;BME280;13848;49.018;12.078;2022-09-12T00:30:26;97852.91;;;14.76;78.67
26083;BME280;13848;49.018;12.078;2022-09-12T00:32:52;97855.53;;;14.71;79.03
26083;BME280;13848;49.018;12.078;2022-09-12T00:35:17;97848.38;;;14.64;79.04
26083;BME280;13848;49.018;12.078;2022-09-12T00:37:43;97847.78;;;14.62;79.24
26083;BME280;13848;49.018;12.078;2022-09-12T00:40:10;97849.59;;;14.57;79.47
26083;BME280;13848;49.018;12.078;2022-09-12T00:42:37;97854.19;;;14.56;79.28
26083;BME280;13848;49.018;12.078;2022-09-12T00:45:03;97841.69;;;14.55;79.06
26083;BME280;13848;49.018;12.078;2022-09-12T00:47:30;97846.06;;;14.56;79.02
26083;BME280;13848;49.018;12.078;2022-09-12T00:50:03;97847.59;;;14.52;79.28
26083;BME280;13848;49.018;12.078;2022-09-12T00:52:33;97845.59;;;14.48;79.42
26083;BME280;13848;49.018;12.078;2022-09-12T00:55:02;97847.38;;;14.42;79.23
26083;BME280;13848;49.018;12.078;2022-09-12T00:57:35;97837.34;;;14.43;79.41
26083;BME280;13848;49.018;12.078;2022-09-12T01:00:07;97836.19;;;14.38;79.49
26083;BME280;13848;49.018;12.078;2022-09-12T01:02:34;97840.44;;;14.34;79.32
26083;BME280;13848;49.018;12.078;2022-09-12T01:05:00;97844.44;;;14.32;79.21
26083;BME280;13848;49.018;12.078;2022-09-12T01:07:26;97838.00;;;14.33;79.24
26083;BME280;13848;49.018;12.078;2022-09-12T01:09:53;97838.47;;;14.30;79.06
26083;BME280;13848;49.018;12.078;2022-09-12T01:12:19;97837.28;;;14.26;79.15
26083;BME280;13848;49.018;12.078;2022-09-12T01:14:45;97841.56;;;14.22;79.53
26083;BME280;13848;49.018;12.078;2022-09-12T01:17:13;97830.38;;;14.18;79.42
26083;BME280;13848;49.018;12.078;2022-09-12T01:20:24;97833.78;;;14.14;79.63
26083;BME280;13848;49.018;12.078;2022-09-12T01:26:02;97833.78;;;14.14;79.53
26083;BME280;13848;49.018;12.078;2022-09-12T01:28:52;97828.88;;;14.10;79.44
26083;BME280;13848;49.018;12.078;2022-09-12T01:31:30;97829.34;;;14.07;79.37
26083;BME280;13848;49.018;12.078;2022-09-12T01:34:08;97828.19;;;14.03;79.27
26083;BME280;13848;49.018;12.078;2022-09-12T01:36:51;97828.19;;;14.03;79.09
26083;BME280;13848;49.018;12.078;2022-09-12T01:39:28;97827.00;;;13.99;79.36
26083;BME280;13848;49.018;12.078;2022-09-12T01:42:06;97834.53;;;13.97;79.27
26083;BME280;13848;49.018;12.078;2022-09-12T01:44:36;97830.69;;;13.93;79.21
26083;BME280;13848;49.018;12.078;2022-09-12T01:47:08;97826.56;;;13.91;79.59
26083;BME280;13848;49.018;12.078;2022-09-12T01:49:40;97820.19;;;13.85;79.30
26083;BME280;13848;49.018;12.078;2022-09-12T01:52:12;97815.28;;;13.82;79.63
26083;BME280;13848;49.018;12.078;2022-09-12T01:54:40;97820.81;;;13.87;79.57
26083;BME280;13848;49.018;12.078;2022-09-12T01:57:11;97820.69;;;13.82;79.53
26083;BME280;13848;49.018;12.078;2022-09-12T01:59:42;97817.75;;;13.72;79.65
26083;BME280;13848;49.018;12.078;2022-09-12T02:02:13;97819.66;;;13.71;79.74
26083;BME280;13848;49.018;12.078;2022-09-12T02:04:44;97809.28;;;13.68;79.96
26083;BME280;13848;49.018;12.078;2022-09-12T02:07:18;97808.00;;;13.71;79.84
26083;BME280;13848;49.018;12.078;2022-09-12T02:09:47;97812.72;;;13.64;80.08
26083;BME280;13848;49.018;12.078;2022-09-12T02:12:17;97813.78;;;13.63;79.84
26083;BME280;13848;49.018;12.078;2022-09-12T02:14:49;97807.75;;;13.61;79.89
26083;BME280;13848;49.018;12.078;2022-09-12T02:17:21;97807.06;;;13.53;79.65
26083;BME280;13848;49.018;12.078;2022-09-12T02:19:51;97802.72;;;13.52;79.87
26083;BME280;13848;49.018;12.078;2022-09-12T02:22:20;97803.88;;;13.56;79.66
26083;BME280;13848;49.018;12.078;2022-09-12T02:24:51;97804.38;;;13.53;79.77
26083;BME280;13848;49.018;12.078;2022-09-12T02:27:20;97802.13;;;13.50;79.80
26083;BME280;13848;49.018;12.078;2022-09-12T02:29:47;97800.97;;;13.46;79.70
26083;BME280;13848;49.018;12.078;2022-09-12T02:32:23;97793.91;;;13.45;79.82
26083;BME280;13848;49.018;12.078;2022-09-12T02:34:56;97794.38;;;13.42;79.81
26083;BME280;13848;49.018;12.078;2022-09-12T02:37:32;97790.25;;;13.40;79.99
26083;BME280;13848;49.018;12.078;2022-09-12T02:40:00;97791.53;;;13.37;79.96
26083;BME280;13848;49.018;12.078;2022-09-12T02:42:26;97794.13;;;13.32;80.31
26083;BME280;13848;49.018;12.078;2022-09-12T02:44:54;97784.94;;;13.33;80.22
26083;BME280;13848;49.018;12.078;2022-09-12T02:47:27;97793.56;;;13.30;80.38
26083;BME280;13848;49.018;12.078;2022-09-12T02:49:55;97792.13;;;13.27;80.00
26083;BME280;13848;49.018;12.078;2022-09-12T02:52:21;97784.38;;;13.31;80.18
26083;BME280;13848;49.018;12.078;2022-09-12T02:54:48;97788.13;;;13.30;80.13
26083;BME280;13848;49.018;12.078;2022-09-12T02:57:15;97791.19;;;13.22;80.34
26083;BME280;13848;49.018;12.078;2022-09-12T02:59:41;97786.38;;;13.24;80.37
26083;BME280;13848;49.018;12.078;2022-09-12T03:02:19;97787.56;;;13.28;80.46
26083;BME280;13848;49.018;12.078;2022-09-12T03:05:07;97784.00;;;13.27;80.24
26083;BME280;13848;49.018;12.078;2022-09-12T03:07:50;97785.78;;;13.22;80.48
26083;BME280;13848;49.018;12.078;2022-09-12T03:10:24;97783.06;;;13.22;80.27
26083;BME280;13848;49.018;12.078;2022-09-12T03:13:04;97785.16;;;13.20;80.60
26083;BME280;13848;49.018;12.078;2022-09-12T03:15:39;97785.78;;;13.22;80.09
26083;BME280;13848;49.018;12.078;2022-09-12T03:18:18;97784.75;;;13.23;80.69
26083;BME280;13848;49.018;12.078;2022-09-12T03:20:56;97779.91;;;13.25;80.83
26083;BME280;13848;49.018;12.078;2022-09-12T03:23:29;97778.25;;;13.24;81.05
26083;BME280;13848;49.018;12.078;2022-09-12T03:26:00;97783.91;;;13.22;80.93
26083;BME280;13848;49.018;12.078;2022-09-12T03:28:30;97787.44;;;13.23;81.06
26083;BME280;13848;49.018;12.078;2022-09-12T03:30:57;97782.59;;;13.25;81.41
26083;BME280;13848;49.018;12.078;2022-09-12T03:33:24;97785.56;;;13.23;81.83
26083;BME280;13848;49.018;12.078;2022-09-12T03:35:52;97790.72;;;13.25;81.82
26083;BME280;13848;49.018;12.078;2022-09-12T03:38:18;97795.56;;;13.23;81.85
26083;BME280;13848;49.018;12.078;2022-09-12T03:40:44;97790.97;;;13.23;81.84
26083;BME280;13848;49.018;12.078;2022-09-12T03:43:10;97791.63;;;13.19;82.18
26083;BME280;13848;49.018;12.078;2022-09-12T03:45:37;97783.28;;;13.20;82.13
26083;BME280;13848;49.018;12.078;2022-09-12T03:48:03;97785.06;;;13.26;82.11
26083;BME280;13848;49.018;12.078;2022-09-12T03:50:29;97785.97;;;13.20;82.32
26083;BME280;13848;49.018;12.078;2022-09-12T03:52:57;97786.72;;;13.27;81.85
26083;BME280;13848;49.018;12.078;2022-09-12T03:55:23;97785.56;;;13.23;82.27
26083;BME280;13848;49.018;12.078;2022-09-12T03:57:51;97789.66;;;13.26;81.77
26083;BME280;13848;49.018;12.078;2022-09-12T04:00:20;97796.38;;;13.23;81.78
26083;BME280;13848;49.018;12.078;2022-09-12T04:02:46;97796.47;;;13.17;81.88
26083;BME280;13848;49.018;12.078;2022-09-12T04:05:12;97793.53;;;13.18;82.13
26083;BME280;13848;49.018;12.078;2022-09-12T04:07:38;97791.41;;;13.20;81.96
26083;BME280;13848;49.018;12.078;2022-09-12T04:10:06;97794.97;;;13.21;82.05
26083;BME280;13848;49.018;12.078;2022-09-12T04:12:32;97794.81;;;13.16;81.92
26083;BME280;13848;49.018;12.078;2022-09-12T04:14:58;97791.06;;;13.17;81.57
26083;BME280;13848;49.018;12.078;2022-09-12T04:17:24;97792.72;;;13.18;81.50
26083;BME280;13848;49.018;12.078;2022-09-12T04:19:50;97784.47;;;13.13;82.00
26083;BME280;13848;49.018;12.078;2022-09-12T04:22:19;97783.97;;;13.16;81.99
26083;BME280;13848;49.018;12.078;2022-09-12T04:24:44;97789.88;;;13.13;82.36
26083;BME280;13848;49.018;12.078;2022-09-12T04:27:12;97789.75;;;13.19;81.98
26083;BME280;13848;49.018;12.078;2022-09-12T04:29:38;97785.16;;;13.20;82.05
26083;BME280;13848;49.018;12.078;2022-09-12T04:32:06;97792.34;;;13.14;82.31
26083;BME280;13848;49.018;12.078;2022-09-12T04:34:35;97793.16;;;13.15;82.42
26083;BME280;13848;49.018;12.078;2022-09-12T04:37:01;97787.88;;;13.20;82.40
26083;BME280;13848;49.018;12.078;2022-09-12T04:39:28;97778.72;;;13.21;82.50
26083;BME280;13848;49.018;12.078;2022-09-12T04:41:54;97785.66;;;13.17;82.74
26083;BME280;13848;49.018;12.078;2022-09-12T04:44:21;97783.28;;;13.20;82.74
26083;BME280;13848;49.018;12.078;2022-09-12T04:46:47;97781.53;;;13.26;82.77
26083;BME280;13848;49.018;12.078;2022-09-12T04:49:14;97792.97;;;13.28;82.47
26083;BME280;13848;49.018;12.078;2022-09-12T04:51:42;97777.78;;;13.27;82.83
26083;BME280;13848;49.018;12.078;2022-09-12T04:54:10;97786.50;;;13.29;82.37
26083;BME280;13848;49.018;12.078;2022-09-12T04:56:38;97785.06;;;13.26;82.69
26083;BME280;13848;49.018;12.078;2022-09-12T04:59:05;97785.88;;;13.27;82.91
26083;BME280;13848;49.018;12.078;2022-09-12T05:01:32;97790.47;;;13.26;82.74
26083;BME280;13848;49.018;12.078;2022-09-12T05:03:58;97797.22;;;13.24;82.87
26083;BME280;13848;49.018;12.078;2022-09-12T05:06:28;97797.22;;;13.24;82.98
26083;BME280;13848;49.018;12.078;2022-09-12T05:08:54;97798.28;;;13.23;82.64
26083;BME280;13848;49.018;12.078;2022-09-12T05:11:22;97799.44;;;13.27;82.59
26083;BME280;13848;49.018;12.078;2022-09-12T05:13:49;97809.22;;;13.28;83.13
26083;BME280;13848;49.018;12.078;2022-09-12T05:16:16;97797.53;;;13.27;82.79
26083;BME280;13848;49.018;12.078;2022-09-12T05:18:44;97803.81;;;13.28;83.16
26083;BME280;13848;49.018;12.078;2022-09-12T05:21:12;97800.63;;;13.31;83.20
26083;BME280;13848;49.018;12.078;2022-09-12T05:23:39;97797.91;;;13.31;82.92
26083;BME280;13848;49.018;12.078;2022-09-12T05:26:12;97808.16;;;13.29;83.15
26083;BME280;13848;49.018;12.078;2022-09-12T05:28:38;97804.28;;;13.25;83.22
26083;BME280;13848;49.018;12.078;2022-09-12T05:31:07;97811.31;;;13.26;83.72
26083;BME280;13848;49.018;12.078;2022-09-12T05:33:36;97824.41;;;13.29;83.25
26083;BME280;13848;49.018;12.078;2022-09-12T05:36:06;97814.16;;;13.31;83.26
26083;BME280;13848;49.018;12.078;2022-09-12T05:38:33;97812.03;;;13.33;83.54
26083;BME280;13848;49.018;12.078;2022-09-12T05:41:03;97825.69;;;13.38;83.41
26083;BME280;13848;49.018;12.078;2022-09-12T05:43:29;97827.31;;;13.39;83.77
26083;BME280;13848;49.018;12.078;2022-09-12T05:45:59;97824.16;;;13.42;83.53
26083;BME280;13848;49.018;12.078;2022-09-12T05:48:25;97826.50;;;13.39;83.17
26083;BME280;13848;49.018;12.078;2022-09-12T05:50:51;97821.09;;;13.39;83.43
26083;BME280;13848;49.018;12.078;2022-09-12T05:53:19;97827.31;;;13.39;83.50
26083;BME280;13848;49.018;12.078;2022-09-12T05:55:45;97825.94;;;13.37;83.50
26083;BME280;13848;49.018;12.078;2022-09-12T05:58:11;97830.41;;;13.43;83.29
26083;BME280;13848;49.018;12.078;2022-09-12T06:00:42;97831.34;;;13.48;83.37
26083;BME280;13848;49.018;12.078;2022-09-12T06:03:08;97836.38;;;13.56;83.07
26083;BME280;13848;49.018;12.078;2022-09-12T06:05:34;97839.69;;;13.58;83.21
26083;BME280;13848;49.018;12.078;2022-09-12T06:08:01;97834.28;;;13.58;82.69
26083;BME280;13848;49.018;12.078;2022-09-12T06:10:29;97827.78;;;13.60;82.92
26083;BME280;13848;49.018;12.078;2022-09-12T06:12:55;97828.97;;;13.64;82.96
26083;BME280;13848;49.018;12.078;2022-09-12T06:15:21;97830.94;;;13.68;82.65
26083;BME280;13848;49.018;12.078;2022-09-12T06:17:47;97831.06;;;13.62;82.17
26083;BME280;13848;49.018;12.078;2022-09-12T06:20:14;97815.44;;;13.52;82.50
26083;BME280;13848;49.018;12.078;2022-09-12T06:22:40;97823.91;;;13.55;83.07
26083;BME280;13848;49.018;12.078;2022-09-12T06:25:06;97829.69;;;13.59;82.67
26083;BME280;13848;49.018;12.078;2022-09-12T06:27:34;97841.47;;;13.65;82.60
26083;BME280;13848;49.018;12.078;2022-09-12T06:30:01;97826.16;;;13.58;82.59
26083;BME280;13848;49.018;12.078;2022-09-12T06:32:29;97832.75;;;13.63;82.98
26083;BME280;13848;49.018;12.078;2022-09-12T06:34:55;97840.88;;;13.63;82.74
26083;BME280;13848;49.018;12.078;2022-09-12T06:37:21;97836.84;;;13.65;82.73
26083;BME280;13848;49.018;12.078;2022-09-12T06:39:47;97829.66;;;13.71;82.65
26083;BME280;13848;49.018;12.078;2022-09-12T06:42:13;97836.47;;;13.73;82.89
26083;BME280;13848;49.018;12.078;2022-09-12T06:44:40;97838.38;;;13.73;82.46
26083;BME280;13848;49.018;12.078;2022-09-12T06:47:06;97840.13;;;13.79;82.39
26083;BME280;13848;49.018;12.078;2022-09-12T06:49:32;97839.56;;;13.77;82.59
26083;BME280;13848;49.018;12.078;2022-09-12T06:51:58;97837.91;;;13.76;82.49
26083;BME280;13848;49.018;12.078;2022-09-12T06:54:24;97838.72;;;13.76;82.17
26083;BME280;13848;49.018;12.078;2022-09-12T06:56:50;97843.66;;;13.79;82.35
26083;BME280;13848;49.018;12.078;2022-09-12T06:59:17;97838.47;;;13.78;82.33
26083;BME280;13848;49.018;12.078;2022-09-12T07:01:44;97845.53;;;13.79;82.79
26083;BME280;13848;49.018;12.078;2022-09-12T07:04:10;97841.41;;;13.88;82.92
26083;BME280;13848;49.018;12.078;2022-09-12T07:06:40;97843.06;;;13.89;82.55
26083;BME280;13848;49.018;12.078;2022-09-12T07:09:09;97837.63;;;13.89;82.97
26083;BME280;13848;49.018;12.078;2022-09-12T07:11:37;97841.53;;;13.93;82.72
26083;BME280;13848;49.018;12.078;2022-09-12T07:14:05;97839.25;;;14.02;82.70
26083;BME280;13848;49.018;12.078;2022-09-12T07:16:33;97832.19;;;14.01;82.49
26083;BME280;13848;49.018;12.078;2022-09-12T07:19:02;97842.03;;;14.19;81.86
26083;BME280;13848;49.018;12.078;2022-09-12T07:21:29;97839.22;;;14.14;82.02
26083;BME280;13848;49.018;12.078;2022-09-12T07:23:56;97840.91;;;14.31;81.91
26083;BME280;13848;49.018;12.078;2022-09-12T07:26:22;97840.06;;;14.43;80.78
26083;BME280;13848;49.018;12.078;2022-09-12T07:28:50;97838.75;;;14.45;80.11
26083;BME280;13848;49.018;12.078;2022-09-12T07:31:21;97837.56;;;14.53;80.23
26083;BME280;13848;49.018;12.078;2022-09-12T07:33:48;97841.28;;;14.35;80.60
26083;BME280;13848;49.018;12.078;2022-09-12T07:36:17;97839.56;;;14.17;80.58
26083;BME280;13848;49.018;12.078;2022-09-12T07:38:44;97840.38;;;14.18;80.59
26083;BME280;13848;49.018;12.078;2022-09-12T07:41:10;97846.78;;;14.11;80.71
26083;BME280;13848;49.018;12.078;2022-09-12T07:43:37;97849.53;;;14.00;80.89
26083;BME280;13848;49.018;12.078;2022-09-12T07:46:03;97842.88;;;14.07;81.29
26083;BME280;13848;49.018;12.078;2022-09-12T07:48:29;97844.06;;;14.11;81.28
26083;BME280;13848;49.018;12.078;2022-09-12T07:50:58;97843.56;;;14.15;81.32
26083;BME280;13848;49.018;12.078;2022-09-12T07:53:29;97847.66;;;14.29;81.27
26083;BME280;13848;49.018;12.078;2022-09-12T07:56:00;97855.31;;;14.32;81.11
26083;BME280;13848;49.018;12.078;2022-09-12T07:58:26;97855.91;;;14.34;80.97
26083;BME280;13848;49.018;12.078;2022-09-12T08:00:54;97846.22;;;14.38;80.91
26083;BME280;13848;49.018;12.078;2022-09-12T08:03:25;97850.22;;;14.47;80.73
26083;BME280;13848;49.018;12.078;2022-09-12T08:05:52;97846.28;;;14.43;80.25
26083;BME280;13848;49.018;12.078;2022-09-12T08:08:18;97855.63;;;14.47;80.32
26083;BME280;13848;49.018;12.078;2022-09-12T08:10:45;97857.97;;;14.55;80.12
26083;BME280;13848;49.018;12.078;2022-09-12T08:13:11;97866.19;;;14.60;79.75
26083;BME280;13848;49.018;12.078;2022-09-12T08:15:41;97867.50;;;14.58;80.12
26083;BME280;13848;49.018;12.078;2022-09-12T08:18:10;97869.00;;;14.66;79.92
26083;BME280;13848;49.018;12.078;2022-09-12T08:20:36;97866.88;;;14.68;79.85
26083;BME280;13848;49.018;12.078;2022-09-12T08:23:10;97874.22;;;14.84;79.85
26083;BME280;13848;49.018;12.078;2022-09-12T08:25:36;97872.28;;;14.96;79.49
26083;BME280;13848;49.018;12.078;2022-09-12T08:28:03;97869.25;;;15.09;78.83
26083;BME280;13848;49.018;12.078;2022-09-12T08:30:30;97869.47;;;15.25;78.50
26083;BME280;13848;49.018;12.078;2022-09-12T08:32:57;97876.16;;;15.34;78.40
26083;BME280;13848;49.018;12.078;2022-09-12T08:35:23;97875.25;;;15.45;77.68
26083;BME280;13848;49.018;12.078;2022-09-12T08:37:48;97870.53;;;15.57;77.44
26083;BME280;13848;49.018;12.078;2022-09-12T08:40:17;97874.00;;;15.69;77.24
26083;BME280;13848;49.018;12.078;2022-09-12T08:42:52;97871.78;;;15.33;76.51
26083;BME280;13848;49.018;12.078;2022-09-12T08:45:25;97873.78;;;15.21;77.61
26083;BME280;13848;49.018;12.078;2022-09-12T08:47:56;97877.31;;;15.38;77.27
26083;BME280;13848;49.018;12.078;2022-09-12T08:50:22;97877.88;;;15.23;77.24
26083;BME280;13848;49.018;12.078;2022-09-12T08:52:53;97868.56;;;15.36;77.16
26083;BME280;13848;49.018;12.078;2022-09-12T08:55:31;97863.94;;;15.36;76.82
26083;BME280;13848;49.018;12.078;2022-09-12T08:57:59;97872.16;;;15.58;77.65
26083;BME280;13848;49.018;12.078;2022-09-12T09:00:34;97855.56;;;15.72;76.29
26083;BME280;13848;49.018;12.078;2022-09-12T09:03:27;97855.63;;;15.99;76.17
26083;BME280;13848;49.018;12.078;2022-09-12T09:06:02;97863.66;;;16.10;75.40
26083;BME280;13848;49.018;12.078;2022-09-12T09:08:47;97855.66;;;16.20;75.00
26083;BME280;13848;49.018;12.078;2022-09-12T09:11:37;97859.19;;;16.43;75.46
26083;BME280;13848;49.018;12.078;2022-09-12T09:14:18;97854.53;;;16.65;74.34
26083;BME280;13848;49.018;12.078;2022-09-12T09:16:49;97851.97;;;16.81;74.06
26083;BME280;13848;49.018;12.078;2022-09-12T09:19:20;97857.09;;;17.04;73.38
26083;BME280;13848;49.018;12.078;2022-09-12T09:21:51;97858.34;;;17.23;73.67
26083;BME280;13848;49.018;12.078;2022-09-12T09:24:23;97856.81;;;17.38;71.56
26083;BME280;13848;49.018;12.078;2022-09-12T09:26:55;97862.84;;;17.45;70.96
26083;BME280;13848;49.018;12.078;2022-09-12T09:29:25;97851.16;;;17.81;71.68
26083;BME280;13848;49.018;12.078;2022-09-12T09:31:56;97852.50;;;17.84;70.70
26083;BME280;13848;49.018;12.078;2022-09-12T09:34:28;97858.44;;;18.23;68.76
26083;BME280;13848;49.018;12.078;2022-09-12T09:36:59;97848.47;;;18.65;67.81
26083;BME280;13848;49.018;12.078;2022-09-12T09:39:44;97854.84;;;19.06;66.02
26083;BME280;13848;49.018;12.078;2022-09-12T09:42:22;97856.47;;;19.07;65.32
26083;BME280;13848;49.018;12.078;2022-09-12T09:44:53;97849.94;;;19.03;65.10
26083;BME280;13848;49.018;12.078;2022-09-12T09:47:22;97848.53;;;19.46;66.37
26083;BME280;13848;49.018;12.078;2022-09-12T09:49:48;97839.19;;;19.88;63.37
26083;BME280;13848;49.018;12.078;2022-09-12T09:52:15;97846.63;;;19.72;62.88
26083;BME280;13848;49.018;12.078;2022-09-12T09:54:45;97847.47;;;19.22;63.45
26083;BME280;13848;49.018;12.078;2022-09-12T09:57:39;97841.72;;;19.64;63.85
26083;BME280;13848;49.018;12.078;2022-09-12T10:00:23;97845.00;;;18.84;63.30
26083;BME280;13848;49.018;12.078;2022-09-12T10:03:29;97850.19;;;19.47;63.94
26083;BME280;13848;49.018;12.078;2022-09-12T10:05:58;97831.84;;;19.73;63.41
26083;BME280;13848;49.018;12.078;2022-09-12T10:08:26;97827.97;;;19.95;62.57
26083;BME280;13848;49.018;12.078;2022-09-12T10:10:58;97837.06;;;20.50;61.29
26083;BME280;13848;49.018;12.078;2022-09-12T10:13:29;97824.13;;;20.60;60.33
26083;BME280;13848;49.018;12.078;2022-09-12T10:15:59;97827.72;;;21.00;59.27
26083;BME280;13848;49.018;12.078;2022-09-12T10:18:38;97822.97;;;21.11;59.52
26083;BME280;13848;49.018;12.078;2022-09-12T10:21:20;97824.00;;;21.15;59.60
26083;BME280;13848;49.018;12.078;2022-09-12T10:23:51;97825.59;;;21.21;58.02
26083;BME280;13848;49.018;12.078;2022-09-12T10:26:19;97825.56;;;20.53;59.24
26083;BME280;13848;49.018;12.078;2022-09-12T10:28:49;97817.97;;;20.79;59.33
26083;BME280;13848;49.018;12.078;2022-09-12T10:31:23;97815.53;;;21.16;58.41
26083;BME280;13848;49.018;12.078;2022-09-12T10:33:51;97819.00;;;21.22;57.43
26083;BME280;13848;49.018;12.078;2022-09-12T10:36:18;97827.28;;;20.83;58.39
26083;BME280;13848;49.018;12.078;2022-09-12T10:38:48;97815.19;;;21.23;58.31
26083;BME280;13848;49.018;12.078;2022-09-12T10:41:15;97819.72;;;21.67;56.57
26083;BME280;13848;49.018;12.078;2022-09-12T10:43:41;97817.78;;;21.67;56.71
26083;BME280;13848;49.018;12.078;2022-09-12T10:46:22;97821.09;;;21.93;56.16
26083;BME280;13848;49.018;12.078;2022-09-12T10:49:11;97816.97;;;21.04;56.26
26083;BME280;13848;49.018;12.078;2022-09-12T10:51:37;97826.88;;;20.99;57.10
26083;BME280;13848;49.018;12.078;2022-09-12T10:54:06;97821.66;;;20.98;57.53
26083;BME280;13848;49.018;12.078;2022-09-12T10:56:37;97821.75;;;21.56;55.85
26083;BME280;13848;49.018;12.078;2022-09-12T10:59:12;97813.28;;;21.52;56.38
26083;BME280;13848;49.018;12.078;2022-09-12T11:01:43;97812.75;;;22.03;56.97
26083;BME280;13848;49.018;12.078;2022-09-12T11:04:23;97806.88;;;22.34;55.07
26083;BME280;13848;49.018;12.078;2022-09-12T11:07:19;97796.16;;;22.14;54.90
26083;BME280;13848;49.018;12.078;2022-09-12T11:09:53;97793.91;;;22.58;54.71
26083;BME280;13848;49.018;12.078;2022-09-12T11:12:28;97797.09;;;23.03;52.29
26083;BME280;13848;49.018;12.078;2022-09-12T11:15:04;97793.06;;;23.15;52.77
26083;BME280;13848;49.018;12.078;2022-09-12T11:17:44;97784.38;;;23.40;50.68
26083;BME280;13848;49.018;12.078;2022-09-12T11:20:30;97789.22;;;23.62;50.49
26083;BME280;13848;49.018;12.078;2022-09-12T11:23:16;97788.47;;;23.43;49.34
26083;BME280;13848;49.018;12.078;2022-09-12T11:25:51;97781.44;;;23.18;50.61
26083;BME280;13848;49.018;12.078;2022-09-12T11:28:31;97773.91;;;23.09;51.94
26083;BME280;13848;49.018;12.078;2022-09-12T11:31:16;97765.69;;;23.70;49.97
26083;BME280;13848;49.018;12.078;2022-09-12T11:33:49;97769.38;;;23.79;49.57
26083;BME280;13848;49.018;12.078;2022-09-12T11:36:26;97769.69;;;23.77;49.55
26083;BME280;13848;49.018;12.078;2022-09-12T11:39:01;97775.16;;;24.19;48.71
26083;BME280;13848;49.018;12.078;2022-09-12T11:41:30;97774.44;;;24.27;47.20
26083;BME280;13848;49.018;12.078;2022-09-12T11:44:01;97766.09;;;24.18;47.77
26083;BME280;13848;49.018;12.078;2022-09-12T11:46:33;97765.66;;;24.25;47.71
26083;BME280;13848;49.018;12.078;2022-09-12T11:49:04;97767.53;;;24.02;45.98
26083;BME280;13848;49.018;12.078;2022-09-12T11:51:37;97759.69;;;23.35;48.58
26083;BME280;13848;49.018;12.078;2022-09-12T11:54:11;97769.16;;;22.58;48.79
26083;BME280;13848;49.018;12.078;2022-09-12T11:56:42;97770.44;;;23.18;49.53
26083;BME280;13848;49.018;12.078;2022-09-12T11:59:16;97758.75;;;23.86;47.97
26083;BME280;13848;49.018;12.078;2022-09-12T12:01:43;97764.44;;;24.31;47.70
26083;BME280;13848;49.018;12.078;2022-09-12T12:04:15;97760.97;;;24.39;46.55
26083;BME280;13848;49.018;12.078;2022-09-12T12:06:48;97750.25;;;24.37;47.66
26083;BME280;13848;49.018;12.078;2022-09-12T12:09:17;97754.38;;;24.85;47.13
26083;BME280;13848;49.018;12.078;2022-09-12T12:11:47;97751.28;;;24.64;45.08
26083;BME280;13848;49.018;12.078;2022-09-12T12:14:15;97756.25;;;24.76;44.58
26083;BME280;13848;49.018;12.078;2022-09-12T12:16:43;97748.31;;;24.10;45.28
26083;BME280;13848;49.018;12.078;2022-09-12T12:19:29;97746.69;;;24.37;44.80
26083;BME280;13848;49.018;12.078;2022-09-12T12:22:05;97745.47;;;24.65;44.29
26083;BME280;13848;49.018;12.078;2022-09-12T12:24:31;97738.06;;;24.52;44.64
26083;BME280;13848;49.018;12.078;2022-09-12T12:26:59;97739.16;;;24.65;44.66
26083;BME280;13848;49.018;12.078;2022-09-12T12:29:38;97738.69;;;24.49;43.49
26083;BME280;13848;49.018;12.078;2022-09-12T12:32:24;97728.03;;;24.56;43.85
26083;BME280;13848;49.018;12.078;2022-09-12T12:35:00;97725.53;;;24.68;43.58
26083;BME280;13848;49.018;12.078;2022-09-12T12:37:53;97729.63;;;24.71;43.21
26083;BME280;13848;49.018;12.078;2022-09-12T12:40:23;97728.03;;;24.56;43.08
26083;BME280;13848;49.018;12.078;2022-09-12T12:43:04;97734.94;;;24.67;43.93
26083;BME280;13848;49.018;12.078;2022-09-12T12:46:07;97723.59;;;24.91;43.97
26083;BME280;13848;49.018;12.078;2022-09-12T12:49:06;97730.56;;;24.89;43.25
26083;BME280;13848;49.018;12.078;2022-09-12T12:51:41;97721.78;;;24.87;42.66
26083;BME280;13848;49.018;12.078;2022-09-12T12:54:34;97721.47;;;24.66;42.73
26083;BME280;13848;49.018;12.078;2022-09-12T13:00:04;97712.16;;;23.76;43.00
26083;BME280;13848;49.018;12.078;2022-09-12T13:02:33;97713.84;;;23.44;43.67
26083;BME280;13848;49.018;12.078;2022-09-12T13:05:02;97712.69;;;22.85;44.39
26083;BME280;13848;49.018;12.078;2022-09-12T13:07:32;97710.25;;;23.16;45.12
26083;BME280;13848;49.018;12.078;2022-09-12T13:10:04;97704.69;;;23.49;44.97
26083;BME280;13848;49.018;12.078;2022-09-12T13:12:34;97702.88;;;23.72;45.21
26083;BME280;13848;49.018;12.078;2022-09-12T13:15:03;97696.16;;;23.78;44.25